メインページ
METAR-TAF:

METAR-TAF

空港 :

NWS Office

ポンペイ島, ミクロネシア

緯度: 06-58N, 経度: 158-13E, 海抜: 39m

現時点の気象観測

当レポートは32分前の04:51(UTC)に作成
の風 4kt
気温 29°C
湿度 74%
気圧 1012 hPa
視程: 11.3km
高度1800ftの雲は散在している
高度13000ftの曇り
煙霧

METAR: PTTP 200451Z 09004KT 7SM HZ SCT018 OVC130 29/24 A2987 RMK HZ BUILD UPS SE-SW-NW SLP115 T02940242

時間: 16:23 (05:23 UTC)


TAF: 見つかりません

4,000以上の空港の気象観測と天気予報(METAR報とTAF報)

利用可能な観測所は地図上に黄色い丸と赤い丸で示す。

丸の上にカーソルを重ねると観測所名を参照できる。

次にクリックすると気象観測と天気予報を参照できる。

マップの切り替え:黒色「×」印の緑ボタンをクリックして拡大、「-」印の緑ボタンをクリックして縮小、緑色の三角印をクリックして隣りの地図に切り替え


METAR-TAF: